createdAt,value
2023-02-01T00:00:24.659Z,5.3
2023-02-01T00:01:23.046Z,5.3
2023-02-01T00:02:27.997Z,5.3
2023-02-01T00:03:25.169Z,5.4
2023-02-01T00:04:23.303Z,5.3
2023-02-01T00:05:23.158Z,5.3
2023-02-01T00:06:25.924Z,5.3
2023-02-01T00:07:23.318Z,5.3
2023-02-01T00:08:24.359Z,5.3
2023-02-01T00:09:25.106Z,5.3
2023-02-01T00:10:23.796Z,5.3
2023-02-01T00:11:23.545Z,5.2
2023-02-01T00:12:31.782Z,5.3
2023-02-01T00:13:23.664Z,5.3
2023-02-01T00:14:24.043Z,5.3
2023-02-01T00:15:26.742Z,5.4
2023-02-01T00:16:23.963Z,5.4
2023-02-01T00:17:23.859Z,5.4
2023-02-01T00:18:25.611Z,5.3
2023-02-01T00:19:23.960Z,5.3
2023-02-01T00:20:24.064Z,5.3
2023-02-01T00:21:26.599Z,5.3
2023-02-01T00:22:25.622Z,5.3
2023-02-01T00:23:24.202Z,5.3
2023-02-01T00:24:27.282Z,5.3
2023-02-01T00:25:24.289Z,5.3
2023-02-01T00:26:24.443Z,5.3
2023-02-01T00:27:26.777Z,5.3
2023-02-01T00:28:24.463Z,5.3
2023-02-01T00:29:24.507Z,5.2
2023-02-01T00:30:26.638Z,5.2
2023-02-01T00:31:25.165Z,5.3
2023-02-01T00:32:27.093Z,5.3
2023-02-01T00:33:24.963Z,5.3
2023-02-01T00:34:24.837Z,5.3
2023-02-01T00:35:24.864Z,5.3
2023-02-01T00:36:26.926Z,5.3
2023-02-01T00:37:25.011Z,5.3
2023-02-01T00:38:40.291Z,5.4
2023-02-01T00:39:47.717Z,5.4
2023-02-01T00:40:41.406Z,5.4
2023-02-01T00:41:25.247Z,5.4
2023-02-01T00:42:46.578Z,5.4
2023-02-01T00:43:25.360Z,5.4
2023-02-01T00:44:29.022Z,5.4
2023-02-01T00:45:47.171Z,5.4
2023-02-01T00:46:27.945Z,5.4
2023-02-01T00:47:25.618Z,5.3
2023-02-01T00:48:27.356Z,5.3
2023-02-01T00:49:25.835Z,5.2
2023-02-01T00:50:28.758Z,5.2
2023-02-01T00:51:51.303Z,5.2
2023-02-01T00:52:36.195Z,5.3
2023-02-01T00:53:25.936Z,5.3
2023-02-01T00:54:27.082Z,5.2
2023-02-01T00:55:26.075Z,5.3
2023-02-01T00:56:28.758Z,5.3
2023-02-01T00:57:27.420Z,5.3
2023-02-01T00:58:28.840Z,5.3
2023-02-01T00:59:26.319Z,5.3
2023-02-01T01:00:30.885Z,5.3
2023-02-01T01:01:26.398Z,5.2
2023-02-01T01:02:37.389Z,5.2
2023-02-01T01:03:41.060Z,5.2
2023-02-01T01:04:30.607Z,5.2
2023-02-01T01:05:26.599Z,5.1
2023-02-01T01:06:28.635Z,5.1
2023-02-01T01:07:32.943Z,5.1
2023-02-01T01:08:31.392Z,5.2
2023-02-01T01:09:43.325Z,5.2
2023-02-01T01:10:30.619Z,5.2
2023-02-01T01:11:26.901Z,5.2
2023-02-01T01:12:41.088Z,5.2
2023-02-01T01:13:27.023Z,5.2
2023-02-01T01:14:27.303Z,5.1
2023-02-01T01:15:38.695Z,5.1
2023-02-01T01:16:27.261Z,5.1
2023-02-01T01:17:27.225Z,5.1
2023-02-01T01:18:27.672Z,5.1
2023-02-01T01:19:27.683Z,5.1
2023-02-01T01:20:27.501Z,5.1
2023-02-01T01:21:48.375Z,5.1
2023-02-01T01:22:30.344Z,5.2
2023-02-01T01:23:27.560Z,5.2
2023-02-01T01:24:28.785Z,5.2
2023-02-01T01:25:29.803Z,5.1
2023-02-01T01:26:27.828Z,5.2
2023-02-01T01:27:40.725Z,5.1
2023-02-01T01:28:28.087Z,5.2
2023-02-01T01:29:27.892Z,5.1
2023-02-01T01:30:42.186Z,5.1
2023-02-01T01:31:28.055Z,5.1
2023-02-01T01:32:29.222Z,5.1
2023-02-01T01:33:49.072Z,5.1
2023-02-01T01:34:28.185Z,5.1
2023-02-01T01:35:28.247Z,5.1
2023-02-01T01:36:51.746Z,5.1
2023-02-01T01:37:28.333Z,5.1
2023-02-01T01:38:28.424Z,5
2023-02-01T01:39:46.523Z,5
2023-02-01T01:40:28.545Z,4.9
2023-02-01T01:41:28.586Z,5
2023-02-01T01:42:32.284Z,5
2023-02-01T01:43:30.390Z,5
2023-02-01T01:44:28.732Z,5.1
2023-02-01T01:45:49.104Z,5.1
2023-02-01T01:46:28.858Z,5
2023-02-01T01:47:28.885Z,5
2023-02-01T01:48:53.161Z,5
2023-02-01T01:49:29.015Z,5
2023-02-01T01:50:29.015Z,5
2023-02-01T01:51:52.968Z,5
2023-02-01T01:52:32.482Z,5
2023-02-01T01:53:29.249Z,5
2023-02-01T01:54:29.303Z,5
2023-02-01T01:55:29.328Z,5
2023-02-01T01:56:29.387Z,5
2023-02-01T01:57:34.751Z,5
2023-02-01T01:58:29.456Z,5
2023-02-01T01:59:29.538Z,4.9
2023-02-01T02:00:31.388Z,4.9
2023-02-01T02:01:29.710Z,5
2023-02-01T02:02:33.172Z,5
2023-02-01T02:03:30.897Z,5
2023-02-01T02:04:29.837Z,4.9
2023-02-01T02:05:29.983Z,5
2023-02-01T02:06:33.577Z,5
2023-02-01T02:07:33.533Z,5.1
2023-02-01T02:08:35.054Z,5
2023-02-01T02:09:30.527Z,5
2023-02-01T02:10:30.146Z,5
2023-02-01T02:11:30.219Z,5
2023-02-01T02:12:37.399Z,5
2023-02-01T02:13:37.936Z,4.9
2023-02-01T02:14:30.391Z,4.9
2023-02-01T02:15:39.352Z,4.9
2023-02-01T02:16:30.512Z,4.9
2023-02-01T02:17:38.832Z,4.9
2023-02-01T02:18:30.570Z,4.9
2023-02-01T02:19:43.140Z,4.8
2023-02-01T02:20:30.678Z,4.9
2023-02-01T02:21:39.336Z,4.9
2023-02-01T02:22:33.259Z,4.9
2023-02-01T02:23:40.516Z,4.9
2023-02-01T02:24:31.059Z,5
2023-02-01T02:25:47.460Z,4.9
2023-02-01T02:26:31.018Z,4.8
2023-02-01T02:27:43.014Z,4.9
2023-02-01T02:28:31.120Z,5
2023-02-01T02:29:40.973Z,5.1
2023-02-01T02:30:31.260Z,5
2023-02-01T02:31:43.195Z,4.9
2023-02-01T02:32:31.566Z,4.9
2023-02-01T02:33:41.584Z,4.9
2023-02-01T02:34:31.439Z,5
2023-02-01T02:35:42.540Z,5
2023-02-01T02:36:31.534Z,5
2023-02-01T02:37:42.103Z,5
2023-02-01T02:38:31.633Z,5
2023-02-01T02:39:46.279Z,5
2023-02-01T02:40:31.795Z,4.9
2023-02-01T02:41:50.205Z,4.9
2023-02-01T02:42:36.546Z,4.9
2023-02-01T02:43:50.920Z,4.9
2023-02-01T02:44:32.154Z,5
2023-02-01T02:45:48.916Z,4.9
2023-02-01T02:46:32.378Z,4.9
2023-02-01T02:47:41.832Z,5
2023-02-01T02:48:32.337Z,5
2023-02-01T02:49:54.938Z,5.1
2023-02-01T02:50:32.460Z,5.1
2023-02-01T02:51:55.267Z,5.1
2023-02-01T02:52:37.657Z,5
2023-02-01T02:53:34.427Z,5.1
2023-02-01T02:54:32.709Z,5
2023-02-01T02:55:54.081Z,5.1
2023-02-01T02:56:33.852Z,5
2023-02-01T02:57:32.846Z,5
2023-02-01T02:58:37.361Z,5
2023-02-01T02:59:33.072Z,5
2023-02-01T03:00:33.042Z,5
2023-02-01T03:01:34.043Z,5
2023-02-01T03:02:37.577Z,5
2023-02-01T03:03:33.198Z,5
2023-02-01T03:04:47.159Z,5
2023-02-01T03:05:59.364Z,5.1
2023-02-01T03:06:33.425Z,5
2023-02-01T03:07:37.251Z,4.9
2023-02-01T03:08:33.698Z,4.9
2023-02-01T03:09:33.564Z,5
2023-02-01T03:10:44.724Z,5
2023-02-01T03:11:33.649Z,5.1
2023-02-01T03:12:38.691Z,5
2023-02-01T03:13:34.228Z,5
2023-02-01T03:14:34.098Z,5
2023-02-01T03:15:33.908Z,5
2023-02-01T03:17:06.123Z,4.9
2023-02-01T03:17:34.012Z,4.9
2023-02-01T03:18:34.046Z,4.9
2023-02-01T03:19:52.812Z,4.9
2023-02-01T03:20:44.570Z,4.9
2023-02-01T03:21:34.265Z,4.9
2023-02-01T03:22:45.155Z,4.9
2023-02-01T03:24:19.593Z,4.9
2023-02-01T03:24:59.481Z,4.9
2023-02-01T03:25:34.431Z,5
2023-02-01T03:27:23.577Z,4.9
2023-02-01T03:27:47.806Z,5
2023-02-01T03:28:34.651Z,4.9
2023-02-01T03:29:34.710Z,5
2023-02-01T03:30:34.762Z,5
2023-02-01T03:31:34.829Z,5
2023-02-01T03:32:34.840Z,5
2023-02-01T03:33:37.246Z,5
2023-02-01T03:34:34.932Z,5
2023-02-01T03:35:35.114Z,4.9
2023-02-01T03:36:36.727Z,4.9
2023-02-01T03:37:35.255Z,5
2023-02-01T03:38:35.297Z,5
2023-02-01T03:39:35.352Z,5
2023-02-01T03:40:35.309Z,5.1
2023-02-01T03:41:35.399Z,5
2023-02-01T03:42:35.756Z,4.9
2023-02-01T03:43:35.730Z,4.9
2023-02-01T03:44:35.800Z,5
2023-02-01T03:45:36.663Z,5
2023-02-01T03:46:35.777Z,5
2023-02-01T03:47:36.196Z,5
2023-02-01T03:48:36.038Z,5
2023-02-01T03:49:36.144Z,4.9
2023-02-01T03:50:36.126Z,4.9
2023-02-01T03:51:38.628Z,4.9
2023-02-01T03:52:36.487Z,4.9
2023-02-01T03:53:36.280Z,4.9
2023-02-01T03:54:36.149Z,4.9
2023-02-01T03:55:36.415Z,4.9
2023-02-01T03:56:36.239Z,5
2023-02-01T03:57:38.475Z,5
2023-02-01T03:58:36.379Z,4.9
2023-02-01T03:59:36.409Z,5
2023-02-01T04:00:37.514Z,5
2023-02-01T04:01:37.418Z,5
2023-02-01T04:02:37.278Z,5
2023-02-01T04:03:38.777Z,5
2023-02-01T04:04:36.851Z,5.1
2023-02-01T04:05:36.979Z,5.1
2023-02-01T04:06:37.032Z,4.9
2023-02-01T04:07:37.018Z,4.9
2023-02-01T04:08:37.135Z,4.9
2023-02-01T04:09:37.295Z,4.8
2023-02-01T04:10:37.188Z,4.9
2023-02-01T04:11:37.201Z,4.8
2023-02-01T04:12:37.279Z,4.8
2023-02-01T04:13:37.376Z,5
2023-02-01T04:14:37.391Z,5
2023-02-01T04:15:37.471Z,4.9
2023-02-01T04:16:37.568Z,4.9
2023-02-01T04:18:37.960Z,5
2023-02-01T04:19:37.643Z,4.9
2023-02-01T04:20:37.681Z,4.9
2023-02-01T04:21:38.579Z,4.8
2023-02-01T04:22:38.173Z,4.9
2023-02-01T04:23:37.901Z,4.8
2023-02-01T04:24:37.957Z,4.8
2023-02-01T04:25:38.035Z,4.8
2023-02-01T04:26:38.119Z,4.9
2023-02-01T04:28:38.175Z,4.9
2023-02-01T04:29:38.362Z,4.9
2023-02-01T04:31:30.637Z,4.8
2023-02-01T04:32:02.500Z,4.8
2023-02-01T04:32:38.383Z,4.8
2023-02-01T04:33:38.496Z,4.8
2023-02-01T04:34:38.477Z,4.8
2023-02-01T04:35:38.556Z,4.9
2023-02-01T04:36:38.563Z,4.9
2023-02-01T04:37:38.627Z,4.9
2023-02-01T04:38:38.775Z,4.9
2023-02-01T04:39:39.085Z,4.9
2023-02-01T04:40:40.880Z,4.9
2023-02-01T04:41:38.878Z,4.9
2023-02-01T04:42:38.964Z,4.9
2023-02-01T04:43:39.109Z,4.9
2023-02-01T04:44:39.022Z,4.9
2023-02-01T04:45:39.046Z,4.9
2023-02-01T04:46:39.206Z,5
2023-02-01T04:47:39.178Z,5
2023-02-01T04:48:39.257Z,4.9
2023-02-01T04:49:39.767Z,5
2023-02-01T04:50:39.348Z,5
2023-02-01T04:51:39.445Z,5
2023-02-01T04:52:39.466Z,5
2023-02-01T04:53:39.542Z,5
2023-02-01T04:54:39.622Z,5
2023-02-01T04:55:39.640Z,5
2023-02-01T04:56:44.960Z,5
2023-02-01T04:57:39.764Z,5
2023-02-01T04:58:39.870Z,5
2023-02-01T04:59:39.865Z,5
2023-02-01T05:00:39.950Z,5
2023-02-01T05:01:42.190Z,5
2023-02-01T05:02:40.086Z,4.9
2023-02-01T05:03:40.159Z,4.9
2023-02-01T05:04:40.351Z,4.9
2023-02-01T05:05:40.268Z,4.8
2023-02-01T05:06:40.227Z,4.9
2023-02-01T05:07:40.882Z,4.8
2023-02-01T05:08:40.367Z,4.8
2023-02-01T05:09:50.371Z,4.8
2023-02-01T05:10:40.503Z,4.8
2023-02-01T05:11:40.551Z,4.7
2023-02-01T05:12:40.612Z,4.7
2023-02-01T05:13:41.304Z,4.6
2023-02-01T05:14:40.738Z,4.7
2023-02-01T05:15:40.842Z,4.7
2023-02-01T05:16:40.911Z,4.8
2023-02-01T05:17:45.962Z,4.8
2023-02-01T05:18:41.597Z,4.8
2023-02-01T05:19:41.054Z,4.8
2023-02-01T06:46:44.236Z,4.7
2023-02-01T06:46:46.139Z,4.7
2023-02-01T06:47:46.095Z,4.7
2023-02-01T06:48:46.151Z,4.6
2023-02-01T06:49:46.194Z,4.6
2023-02-01T06:50:46.247Z,4.7
2023-02-01T06:51:53.611Z,4.7
2023-02-01T06:52:46.332Z,4.6
2023-02-01T06:53:52.677Z,4.7
2023-02-01T06:55:02.415Z,4.7
2023-02-01T06:56:04.491Z,4.7
2023-02-01T06:56:46.535Z,4.7
2023-02-01T06:59:10.023Z,4.8
2023-02-01T06:59:46.752Z,4.8
2023-02-01T07:00:46.809Z,4.7
2023-02-01T07:01:46.915Z,4.6
2023-02-01T07:02:46.865Z,4.6
2023-02-01T07:03:46.956Z,4.7
2023-02-01T07:04:46.959Z,4.6
2023-02-01T07:05:47.045Z,4.7
2023-02-01T07:06:57.002Z,4.7
2023-02-01T07:07:47.168Z,4.7
2023-02-01T07:08:47.223Z,4.7
2023-02-01T07:09:47.283Z,4.7
2023-02-01T07:10:47.328Z,4.7
2023-02-01T07:11:47.418Z,4.6
2023-02-01T07:12:47.452Z,4.6
2023-02-01T07:13:47.575Z,4.6
2023-02-01T07:14:47.591Z,4.6
2023-02-01T07:15:47.634Z,4.7
2023-02-01T07:16:47.720Z,4.7
2023-02-01T07:17:47.801Z,4.6
2023-02-01T07:18:47.823Z,4.6
2023-02-01T07:19:47.871Z,4.7
2023-02-01T07:20:47.902Z,4.7
2023-02-01T07:21:47.981Z,4.7
2023-02-01T07:22:48.062Z,4.7
2023-02-01T07:23:48.115Z,4.8
2023-02-01T07:24:48.187Z,4.8
2023-02-01T07:25:48.255Z,4.8
2023-02-01T07:26:48.370Z,4.8
2023-02-01T07:27:48.354Z,4.8
2023-02-01T07:28:48.382Z,4.8
2023-02-01T07:29:48.457Z,4.8
2023-02-01T07:30:48.562Z,4.8
2023-02-01T07:31:48.549Z,4.8
2023-02-01T07:32:48.658Z,4.8
2023-02-01T07:33:48.726Z,4.7
2023-02-01T07:34:48.705Z,4.7
2023-02-01T07:35:48.793Z,4.8
2023-02-01T07:36:48.828Z,4.8
2023-02-01T07:37:48.869Z,4.8
2023-02-01T07:38:49.009Z,4.8
2023-02-01T07:39:49.066Z,4.8
2023-02-01T07:40:49.052Z,4.8
2023-02-01T07:41:49.100Z,4.7
2023-02-01T07:42:49.160Z,4.8
2023-02-01T07:43:49.312Z,4.9
2023-02-01T07:44:49.295Z,4.8
2023-02-01T07:45:49.368Z,4.8
2023-02-01T07:46:49.423Z,4.8
2023-02-01T07:47:49.447Z,4.8
2023-02-01T07:48:49.474Z,4.8
2023-02-01T07:49:49.539Z,4.8
2023-02-01T07:50:49.559Z,4.8
2023-02-01T07:51:49.658Z,4.8
2023-02-01T07:52:49.696Z,4.8
2023-02-01T07:53:49.753Z,4.8
2023-02-01T07:54:49.829Z,4.7
2023-02-01T07:55:49.885Z,4.7
2023-02-01T07:56:49.963Z,4.8
2023-02-01T07:57:49.975Z,4.9
2023-02-01T07:58:50.057Z,4.8
2023-02-01T07:59:50.057Z,4.8
2023-02-01T08:00:50.143Z,4.8
2023-02-01T08:01:50.309Z,4.8
2023-02-01T08:02:50.329Z,4.8
2023-02-01T08:03:50.377Z,4.8
2023-02-01T08:04:50.380Z,4.8
2023-02-01T08:05:50.474Z,4.8
2023-02-01T08:06:50.514Z,4.8
2023-02-01T08:07:50.570Z,4.8
2023-02-01T08:08:50.661Z,4.8
2023-02-01T08:09:50.657Z,4.8
2023-02-01T08:10:50.726Z,4.8
2023-02-01T08:11:50.783Z,4.8
2023-02-01T08:12:50.847Z,4.8
2023-02-01T08:13:50.893Z,4.8
2023-02-01T08:14:50.941Z,4.8
2023-02-01T08:15:51.155Z,4.8
2023-02-01T08:16:51.158Z,4.8
2023-02-01T08:17:51.098Z,4.8
2023-02-01T08:18:53.133Z,4.7
2023-02-01T08:19:51.168Z,4.8
2023-02-01T08:20:51.239Z,4.8
2023-02-01T08:21:51.378Z,4.8
2023-02-01T08:22:54.251Z,4.8
2023-02-01T08:23:51.420Z,4.9
2023-02-01T08:24:51.469Z,4.9
2023-02-01T08:25:51.556Z,4.8
2023-02-01T08:26:51.728Z,4.8
2023-02-01T08:27:51.724Z,4.8
2023-02-01T08:28:51.802Z,4.8
2023-02-01T08:29:51.819Z,4.9
2023-02-01T08:30:51.895Z,4.9
2023-02-01T08:31:51.996Z,4.9
2023-02-01T08:32:51.991Z,4.8
2023-02-01T08:33:52.063Z,4.9
2023-02-01T08:34:52.098Z,4.8
2023-02-01T08:35:52.187Z,4.9
2023-02-01T08:36:52.332Z,4.9
2023-02-01T08:37:52.378Z,4.9
2023-02-01T08:38:52.405Z,4.9
2023-02-01T08:39:52.534Z,4.9
2023-02-01T08:40:52.536Z,4.9
2023-02-01T08:41:52.561Z,4.9
2023-02-01T08:42:52.623Z,4.9
2023-02-01T08:43:52.674Z,4.9
2023-02-01T08:44:52.736Z,4.8
2023-02-01T08:45:55.893Z,4.8
2023-02-01T08:46:53.043Z,4.8
2023-02-01T08:47:53.011Z,4.9
2023-02-01T08:48:53.158Z,4.8
2023-02-01T08:49:53.148Z,4.8
2023-02-01T08:50:53.175Z,4.8
2023-02-01T08:51:55.012Z,4.9
2023-02-01T08:52:53.336Z,4.9
2023-02-01T08:53:53.347Z,4.8
2023-02-01T08:54:53.451Z,4.8
2023-02-01T08:55:53.518Z,4.8
2023-02-01T08:56:53.636Z,4.8
2023-02-01T08:57:53.617Z,4.8
2023-02-01T08:58:53.634Z,4.8
2023-02-01T09:00:08.900Z,4.9
2023-02-01T09:00:53.757Z,4.9
2023-02-01T09:01:53.827Z,4.9
2023-02-01T09:02:53.882Z,4.9
2023-02-01T09:03:53.984Z,4.9
2023-02-01T09:04:54.436Z,4.9
2023-02-01T09:05:54.683Z,4.9
2023-02-01T09:06:54.109Z,4.9
2023-02-01T09:07:54.177Z,4.9
2023-02-01T09:08:54.229Z,4.9
2023-02-01T09:09:54.319Z,4.9
2023-02-01T09:10:54.328Z,5
2023-02-01T09:12:00.720Z,5
2023-02-01T09:12:54.457Z,5
2023-02-01T09:13:54.507Z,5.1
2023-02-01T09:14:54.681Z,5
2023-02-01T09:15:54.677Z,5
2023-02-01T09:16:54.693Z,5
2023-02-01T09:17:57.138Z,5.1
2023-02-01T09:19:01.711Z,5.1
2023-02-01T09:19:54.856Z,5.1
2023-02-01T09:20:54.894Z,5.2
2023-02-01T09:21:55.147Z,5.1
2023-02-01T09:22:55.006Z,5.1
2023-02-01T09:23:57.117Z,5.1
2023-02-01T09:24:55.447Z,5.1
2023-02-01T09:25:55.201Z,5.2
2023-02-01T09:26:55.286Z,5.2
2023-02-01T09:27:55.436Z,5.2
2023-02-01T09:28:55.336Z,5.2
2023-02-01T09:29:57.166Z,5.2
2023-02-01T09:30:55.560Z,5.3
2023-02-01T09:32:03.097Z,5.3
2023-02-01T09:32:55.633Z,5.4
2023-02-01T09:33:55.651Z,5.4
2023-02-01T09:34:55.694Z,5.3
2023-02-01T09:35:56.483Z,5.3
2023-02-01T09:36:55.794Z,5.4
2023-02-01T09:37:55.863Z,5.3
2023-02-01T09:38:55.953Z,5.3
2023-02-01T09:39:55.991Z,5.4
2023-02-01T09:40:56.056Z,5.4
2023-02-01T09:41:56.092Z,5.4
2023-02-01T09:42:56.100Z,5.4
2023-02-01T09:43:56.216Z,5.4
2023-02-01T09:44:56.227Z,5.4
2023-02-01T09:45:56.341Z,5.4
2023-02-01T09:46:56.392Z,5.3
2023-02-01T09:47:56.817Z,5.3
2023-02-01T09:48:56.479Z,5.3
2023-02-01T09:49:56.568Z,5.3
2023-02-01T09:50:56.588Z,5.3
2023-02-01T09:51:56.732Z,5.4
2023-02-01T09:52:56.720Z,5.3
2023-02-01T09:53:56.791Z,5.3
2023-02-01T09:54:56.760Z,5.3
2023-02-01T09:55:56.817Z,5.3
2023-02-01T09:56:56.840Z,5.3
2023-02-01T09:57:56.921Z,5.3
2023-02-01T09:58:56.947Z,5.3
2023-02-01T10:00:06.358Z,5.3
2023-02-01T10:00:57.090Z,5.3
2023-02-01T10:01:57.169Z,5.3
2023-02-01T10:02:57.241Z,5.3
2023-02-01T10:03:57.266Z,5.3
2023-02-01T10:04:57.421Z,5.3
2023-02-01T10:06:01.863Z,5.3
2023-02-01T10:06:57.424Z,5.4
2023-02-01T10:07:57.505Z,5.3
2023-02-01T10:08:57.588Z,5.3
2023-02-01T10:09:57.575Z,5.4
2023-02-01T10:10:57.608Z,5.4
2023-02-01T10:12:01.776Z,5.4
2023-02-01T10:12:57.701Z,5.5
2023-02-01T10:13:57.812Z,5.4
2023-02-01T10:14:57.848Z,5.4
2023-02-01T10:15:58.150Z,5.4
2023-02-01T10:16:57.960Z,5.4
2023-02-01T10:18:04.192Z,5.3
2023-02-01T10:18:57.985Z,5.3
2023-02-01T10:19:58.074Z,5.3
2023-02-01T10:20:58.103Z,5.3
2023-02-01T10:21:58.172Z,5.3
2023-02-01T10:23:19.373Z,5.3
2023-02-01T10:24:06.165Z,5.3
2023-02-01T10:24:58.403Z,5.3
2023-02-01T10:25:58.377Z,5.3
2023-02-01T10:27:03.678Z,5.3
2023-02-01T10:27:58.501Z,5.3
2023-02-01T10:28:58.570Z,5.3
2023-02-01T10:30:06.020Z,5.3
2023-02-01T10:30:58.823Z,5.3
2023-02-01T10:31:58.831Z,5.4
2023-02-01T10:32:58.797Z,5.4
2023-02-01T10:33:58.843Z,5.4
2023-02-01T10:34:58.889Z,5.4
2023-02-01T10:36:02.956Z,5.4
2023-02-01T10:36:59.015Z,5.4
2023-02-01T10:37:59.046Z,5.5
2023-02-01T10:38:59.115Z,5.5
2023-02-01T10:39:59.158Z,5.5
2023-02-01T10:40:59.214Z,5.6
2023-02-01T10:42:03.759Z,5.6
2023-02-01T10:42:59.350Z,5.5
2023-02-01T10:43:59.440Z,5.5
2023-02-01T10:44:59.440Z,5.5
2023-02-01T10:45:59.567Z,5.5
2023-02-01T10:46:59.627Z,5.5
2023-02-01T10:48:04.906Z,5.6
2023-02-01T10:48:59.680Z,5.6
2023-02-01T10:49:59.713Z,5.6
2023-02-01T10:50:59.749Z,5.6
2023-02-01T10:51:59.845Z,5.7
2023-02-01T10:52:59.921Z,5.6
2023-02-01T10:54:04.509Z,5.6
2023-02-01T10:55:00.052Z,5.7
2023-02-01T10:56:00.118Z,5.7
2023-02-01T10:57:00.618Z,5.7
2023-02-01T10:58:00.211Z,5.7
2023-02-01T10:59:00.275Z,5.8
2023-02-01T11:00:12.472Z,5.9
2023-02-01T11:01:00.442Z,6
2023-02-01T11:02:00.815Z,6.1
2023-02-01T11:03:00.597Z,6.1
2023-02-01T11:04:00.570Z,6.1
2023-02-01T11:05:00.607Z,6.1
2023-02-01T11:06:07.764Z,6.2
2023-02-01T11:07:00.728Z,6.1
2023-02-01T11:08:00.809Z,6.2
2023-02-01T11:09:00.867Z,6.4
2023-02-01T11:10:00.933Z,6.4
2023-02-01T11:11:00.976Z,6.3
2023-02-01T11:12:10.042Z,6.3
2023-02-01T11:13:01.048Z,6.3
2023-02-01T11:14:01.130Z,6.3
2023-02-01T11:15:01.214Z,6.3
2023-02-01T11:16:01.322Z,6.3
2023-02-01T11:17:01.334Z,6.3
2023-02-01T11:18:08.221Z,6.4
2023-02-01T11:19:01.364Z,6.4
2023-02-01T11:20:02.116Z,6.4
2023-02-01T11:21:01.463Z,6.4
2023-02-01T11:22:01.565Z,6.5
2023-02-01T11:23:01.635Z,6.4
2023-02-01T11:24:09.846Z,6.4
2023-02-01T11:25:01.756Z,6.3
2023-02-01T11:26:01.816Z,6.3
2023-02-01T11:27:01.830Z,6.2
2023-02-01T11:28:01.885Z,6.2
2023-02-01T11:29:10.505Z,6.2
2023-02-01T11:30:16.463Z,6.2
2023-02-01T11:31:02.142Z,6.2
2023-02-01T11:32:02.118Z,6.1
2023-02-01T11:33:02.186Z,6.1
2023-02-01T11:34:02.242Z,6.1
2023-02-01T11:35:02.265Z,6
2023-02-01T11:36:16.318Z,6
2023-02-01T11:37:02.408Z,6
2023-02-01T11:38:02.466Z,6.1
2023-02-01T11:39:03.662Z,6.1
2023-02-01T11:40:02.590Z,6
2023-02-01T11:41:02.621Z,6
2023-02-01T11:42:16.812Z,6
2023-02-01T11:43:02.709Z,6.1
2023-02-01T11:44:02.739Z,6.1
2023-02-01T11:45:04.601Z,6.1
2023-02-01T11:46:02.881Z,6.1
2023-02-01T11:47:02.955Z,6.2
2023-02-01T11:48:25.371Z,6.2
2023-02-01T11:49:03.079Z,6.3
2023-02-01T11:50:03.210Z,6.3
2023-02-01T11:51:04.891Z,6.4
2023-02-01T11:52:03.257Z,6.4
2023-02-01T11:53:03.368Z,6.3
2023-02-01T11:54:22.033Z,6.3
2023-02-01T11:55:03.418Z,6.3
2023-02-01T11:56:10.496Z,6.3
2023-02-01T11:57:08.966Z,6.4
2023-02-01T11:58:16.930Z,6.4
2023-02-01T11:59:03.666Z,6.4
2023-02-01T12:01:01.504Z,6.4
2023-02-01T12:01:03.697Z,6.3
2023-02-01T12:02:22.008Z,6.3
2023-02-01T12:03:19.364Z,6.3
2023-02-01T12:04:25.031Z,6.2
2023-02-01T12:05:03.882Z,6.2
2023-02-01T12:07:17.057Z,6.1
2023-02-01T12:08:04.034Z,6.2
2023-02-01T12:09:04.148Z,6.1
2023-02-01T12:10:04.238Z,6.1
2023-02-01T12:11:04.225Z,6
2023-02-01T12:12:04.270Z,6.1
2023-02-01T12:13:04.348Z,6.1
2023-02-01T12:14:04.433Z,6
2023-02-01T12:15:04.451Z,6
2023-02-01T12:16:04.532Z,6
2023-02-01T12:17:04.537Z,6
2023-02-01T12:18:04.587Z,6
2023-02-01T12:19:04.631Z,6
2023-02-01T12:20:04.679Z,6
2023-02-01T12:21:04.764Z,6
2023-02-01T12:22:04.842Z,6.1
2023-02-01T12:23:04.915Z,6.1
2023-02-01T12:24:04.901Z,6
2023-02-01T12:25:04.963Z,6
2023-02-01T12:26:05.032Z,6
2023-02-01T12:27:05.115Z,6
2023-02-01T12:28:05.188Z,6.1
2023-02-01T12:29:05.234Z,6.1
2023-02-01T12:30:05.317Z,6
2023-02-01T12:31:05.421Z,6
2023-02-01T12:32:05.414Z,6
2023-02-01T12:33:05.493Z,6
2023-02-01T12:34:05.463Z,6.1
2023-02-01T12:35:05.512Z,6.1
2023-02-01T12:36:05.571Z,6.1
2023-02-01T12:37:08.556Z,6.1
2023-02-01T12:38:05.704Z,6.1
2023-02-01T12:39:05.723Z,6.1
2023-02-01T12:40:05.781Z,6.1
2023-02-01T12:41:05.833Z,6.1
2023-02-01T12:42:05.899Z,6
2023-02-01T12:43:06.687Z,6
2023-02-01T12:44:06.012Z,6
2023-02-01T12:45:06.653Z,6
2023-02-01T12:46:06.167Z,6.1
2023-02-01T12:47:06.682Z,6.1
2023-02-01T12:48:06.334Z,6.1
2023-02-01T12:49:06.657Z,6.1
2023-02-01T12:50:06.356Z,6.1
2023-02-01T12:51:06.396Z,6.1
2023-02-01T12:52:06.535Z,6.1
2023-02-01T12:53:06.585Z,6.1
2023-02-01T12:54:06.593Z,6.1
2023-02-01T12:55:06.689Z,6.1
2023-02-01T12:56:06.677Z,6.1
2023-02-01T12:57:07.619Z,6.1
2023-02-01T12:58:06.819Z,6.1
2023-02-01T12:59:06.909Z,6.1
2023-02-01T13:00:06.955Z,6.1
2023-02-01T13:01:06.986Z,6.1
2023-02-01T13:02:07.006Z,6.2
2023-02-01T13:03:08.250Z,6.1
2023-02-01T13:04:07.145Z,6.1
2023-02-01T13:05:07.911Z,6.1
2023-02-01T13:06:07.215Z,6.1
2023-02-01T13:07:08.219Z,6.1
2023-02-01T13:08:07.364Z,6.2
2023-02-01T13:09:07.638Z,6.2
2023-02-01T13:10:07.483Z,6.2
2023-02-01T13:11:09.194Z,6.2
2023-02-01T13:12:07.635Z,6.2
2023-02-01T13:13:10.818Z,6.2
2023-02-01T13:14:07.750Z,6.2
2023-02-01T13:15:08.274Z,6.2
2023-02-01T13:16:07.885Z,6.1
2023-02-01T13:17:09.522Z,6.1
2023-02-01T13:18:07.974Z,6.2
2023-02-01T13:19:09.762Z,6.2
2023-02-01T13:20:08.064Z,6.1
2023-02-01T13:21:08.883Z,6.1
2023-02-01T13:22:08.196Z,6.1
2023-02-01T13:23:08.469Z,6.2
2023-02-01T13:24:08.342Z,6.2
2023-02-01T13:25:08.886Z,6.2
2023-02-01T13:26:08.379Z,6.1
2023-02-01T13:27:09.129Z,6.1
2023-02-01T13:28:08.453Z,6.1
2023-02-01T13:29:08.542Z,6.2
2023-02-01T13:30:08.618Z,6.2
2023-02-01T13:31:08.979Z,6.2
2023-02-01T13:32:08.703Z,6.2
2023-02-01T13:33:51.901Z,6.2
2023-02-01T13:34:08.836Z,6.2
2023-02-01T13:35:08.944Z,6.2
2023-02-01T13:36:08.936Z,6.2
2023-02-01T13:37:10.699Z,6.2
2023-02-01T13:38:09.031Z,6.2
2023-02-01T13:39:09.676Z,6.2
2023-02-01T13:40:09.818Z,6.2
2023-02-01T13:41:09.307Z,6.2
2023-02-01T13:42:09.274Z,6.2
2023-02-01T13:43:09.671Z,6.2
2023-02-01T13:44:09.432Z,6.1
2023-02-01T13:45:09.395Z,6.2
2023-02-01T13:46:09.484Z,6.2
2023-02-01T13:47:10.049Z,6.1
2023-02-01T13:48:09.558Z,6.1
2023-02-01T13:49:10.361Z,6.1
2023-02-01T13:50:09.712Z,6.1
2023-02-01T13:51:09.722Z,6.1
2023-02-01T13:52:11.122Z,6.1
2023-02-01T13:53:09.816Z,6.1
2023-02-01T13:54:09.903Z,6.1
2023-02-01T13:55:10.152Z,6.1
2023-02-01T13:56:10.053Z,6
2023-02-01T13:57:10.115Z,6
2023-02-01T13:58:12.876Z,6.1
2023-02-01T13:59:10.183Z,6.1
2023-02-01T14:00:10.272Z,6
2023-02-01T14:01:10.302Z,6
2023-02-01T14:02:10.348Z,6
2023-02-01T14:03:10.439Z,6.1
2023-02-01T14:04:12.239Z,6.1
2023-02-01T14:05:10.721Z,6
2023-02-01T14:06:10.641Z,6
2023-02-01T14:07:12.208Z,6
2023-02-01T14:08:10.765Z,6
2023-02-01T14:09:13.328Z,6
2023-02-01T14:10:11.357Z,6
2023-02-01T14:11:10.842Z,6
2023-02-01T14:12:10.910Z,6
2023-02-01T14:13:12.639Z,6.1
2023-02-01T14:14:11.023Z,6.1
2023-02-01T14:15:11.170Z,6
2023-02-01T14:16:11.155Z,6.1
2023-02-01T14:17:11.199Z,6
2023-02-01T14:18:11.267Z,6
2023-02-01T14:19:11.286Z,6.1
2023-02-01T14:20:11.364Z,6.1
2023-02-01T14:21:21.998Z,6.1
2023-02-01T14:22:11.437Z,6.1
2023-02-01T14:23:11.486Z,6.1
2023-02-01T14:24:11.536Z,6.1
2023-02-01T14:25:28.527Z,6.1
2023-02-01T14:26:11.630Z,6.2
2023-02-01T14:27:20.565Z,6.2
2023-02-01T14:28:11.760Z,6.2
2023-02-01T14:29:20.686Z,6.1
2023-02-01T14:30:11.902Z,6.1
2023-02-01T14:31:16.045Z,6.1
2023-02-01T14:32:12.002Z,6.1
2023-02-01T14:33:12.789Z,6.1
2023-02-01T14:34:12.082Z,6.1
2023-02-01T14:35:15.956Z,6.1
2023-02-01T14:36:12.299Z,6.2
2023-02-01T14:37:22.381Z,6.2
2023-02-01T14:38:12.387Z,6.2
2023-02-01T14:39:16.797Z,6.2
2023-02-01T14:40:12.471Z,6.2
2023-02-01T14:41:16.047Z,6.2
2023-02-01T14:42:12.559Z,6.3
2023-02-01T14:43:26.775Z,6.3
2023-02-01T14:45:26.887Z,6.3
2023-02-01T14:46:12.831Z,6.3
2023-02-01T14:47:12.852Z,6.3
2023-02-01T14:48:12.913Z,6.3
2023-02-01T14:49:12.954Z,6.3
2023-02-01T14:50:13.050Z,6.3
2023-02-01T14:51:13.638Z,6.3
2023-02-01T14:52:13.131Z,6.3
2023-02-01T14:53:13.208Z,6.3
2023-02-01T14:54:13.232Z,6.3
2023-02-01T14:55:13.264Z,6.3
2023-02-01T14:56:13.330Z,6.3
2023-02-01T14:57:13.352Z,6.3
2023-02-01T14:58:13.400Z,6.3
2023-02-01T14:59:13.475Z,6.3
2023-02-01T15:00:13.551Z,6.3
2023-02-01T15:01:13.631Z,6.3
2023-02-01T15:02:13.639Z,6.3
2023-02-01T15:03:13.708Z,6.4
2023-02-01T15:04:13.762Z,6.4
2023-02-01T15:05:13.795Z,6.4
2023-02-01T15:06:13.868Z,6.3
2023-02-01T15:07:13.913Z,6.4
2023-02-01T15:08:14.034Z,6.3
2023-02-01T15:09:14.069Z,6.4
2023-02-01T15:10:14.112Z,6.4
2023-02-01T15:11:14.151Z,6.4
2023-02-01T15:12:14.209Z,6.4
2023-02-01T15:13:14.277Z,6.4
2023-02-01T15:14:14.346Z,6.4
2023-02-01T15:15:14.432Z,6.4
2023-02-01T15:16:14.516Z,6.4
2023-02-01T15:17:14.540Z,6.4
2023-02-01T15:18:14.580Z,6.4
2023-02-01T15:19:14.702Z,6.4
2023-02-01T15:20:14.707Z,6.4
2023-02-01T15:21:27.061Z,6.4
2023-02-01T15:22:14.797Z,6.4
2023-02-01T15:23:14.842Z,6.4
2023-02-01T15:24:14.939Z,6.4
2023-02-01T15:25:14.962Z,6.5
2023-02-01T15:26:15.190Z,6.4
2023-02-01T15:27:15.077Z,6.4